Time;durP1;ratioP1;P1;durP2;ratioP2;P2;SDS_P1;SDS_P2;PMS_P1;PMS_P2;Temp;Humidity;BMP_temperature;BMP_pressure;BME280_temperature;BME280_humidity;BME280_pressure;Samples;Min_cycle;Max_cycle;Signal;HPM_P1;HPM_P2
2022/06/19 00:01:57;;;;;;;6.33;3.90;;;28.20;45.00;;;;;;5089071;28;20523;-88
2022/06/19 00:04:25;;;;;;;6.63;3.60;;;28.20;45.00;;;;;;5094467;28;21154;-89
2022/06/19 00:06:54;;;;;;;9.93;4.00;;;28.10;45.20;;;;;;5081832;28;20449;-92
2022/06/19 00:09:21;;;;;;;10.20;4.10;;;28.00;45.10;;;;;;5080243;28;20463;-88
2022/06/19 00:11:47;;;;;;;5.60;3.47;;;28.00;45.20;;;;;;5063322;28;20541;-87
2022/06/19 00:14:14;;;;;;;9.67;4.10;;;28.00;45.20;;;;;;5079860;27;20436;-89
2022/06/19 00:16:43;;;;;;;5.67;4.13;;;28.00;45.30;;;;;;5098001;27;20486;-88
2022/06/19 00:19:10;;;;;;;12.57;3.83;;;28.00;45.20;;;;;;5072511;27;20486;-87
2022/06/19 00:21:37;;;;;;;10.20;4.27;;;27.90;45.40;;;;;;5083879;28;20446;-87
2022/06/19 00:24:04;;;;;;;11.50;3.80;;;27.60;46.00;;;;;;5091725;27;20462;-87
2022/06/19 00:26:31;;;;;;;14.07;4.07;;;27.20;46.40;;;;;;5094589;27;20442;-87
2022/06/19 00:28:58;;;;;;;5.80;3.33;;;27.30;46.40;;;;;;5087945;28;20455;-92
2022/06/19 00:31:26;;;;;;;10.67;3.63;;;27.40;46.50;;;;;;5107573;27;20504;-88
2022/06/19 00:33:55;;;;;;;6.70;4.13;;;27.50;46.00;;;;;;5087694;28;20535;-88
2022/06/19 00:36:25;;;;;;;9.80;3.33;;;27.50;45.80;;;;;;5105711;28;20443;-87
2022/06/19 00:38:52;;;;;;;10.23;4.10;;;27.50;45.90;;;;;;5093644;28;20474;-88
2022/06/19 00:41:19;;;;;;;8.77;3.93;;;27.60;46.00;;;;;;5075164;28;20474;-89
2022/06/19 00:43:58;;;;;;;8.73;4.47;;;27.60;45.90;;;;;;5087553;27;20473;-90
2022/06/19 00:46:46;;;;;;;11.03;4.80;;;27.40;46.00;;;;;;5057938;27;20526;-88
2022/06/19 00:49:17;;;;;;;7.67;4.53;;;27.40;46.20;;;;;;5081043;28;20562;-88
2022/06/19 00:51:44;;;;;;;9.60;3.80;;;27.40;46.20;;;;;;5065405;28;20986;-87
2022/06/19 00:54:15;;;;;;;7.90;3.93;;;27.40;46.20;;;;;;5075685;27;20464;-89
2022/06/19 00:56:43;;;;;;;9.77;4.93;;;27.30;46.70;;;;;;5082944;28;20514;-90
2022/06/19 00:59:12;;;;;;;10.60;3.60;;;27.30;46.50;;;;;;5091805;28;21033;-87
2022/06/19 01:01:41;;;;;;;11.93;4.00;;;27.30;46.40;;;;;;5091086;28;20451;-88
2022/06/19 01:04:16;;;;;;;10.80;4.10;;;27.30;46.40;;;;;;5107618;27;20508;-89
2022/06/19 01:06:44;;;;;;;12.40;4.27;;;27.20;46.40;;;;;;5090450;28;20439;-89
2022/06/19 01:09:11;;;;;;;7.60;4.83;;;27.10;46.90;;;;;;5088879;27;20467;-88
2022/06/19 01:11:39;;;;;;;12.17;5.37;;;27.10;47.60;;;;;;5092800;27;20430;-88
2022/06/19 01:14:09;;;;;;;10.40;4.40;;;27.10;48.60;;;;;;5089889;28;20443;-88
2022/06/19 01:16:37;;;;;;;9.80;4.33;;;27.00;49.00;;;;;;5059142;28;20798;-87
2022/06/19 01:19:06;;;;;;;11.73;4.30;;;27.00;48.80;;;;;;5085392;28;20464;-89
2022/06/19 01:21:41;;;;;;;10.07;4.00;;;27.00;48.50;;;;;;5088741;27;21026;-87
2022/06/19 01:24:15;;;;;;;13.30;4.43;;;26.90;48.40;;;;;;5108365;27;20450;-88
2022/06/19 01:26:48;;;;;;;8.87;3.87;;;26.90;48.20;;;;;;5107460;28;20438;-88
2022/06/19 01:29:15;;;;;;;6.60;3.93;;;26.90;47.80;;;;;;5067434;28;20834;-88
2022/06/19 01:31:46;;;;;;;9.97;5.10;;;26.80;47.40;;;;;;5106979;27;20444;-89
2022/06/19 01:34:32;;;;;;;7.80;3.97;;;26.90;47.40;;;;;;5103187;27;20986;-89
2022/06/19 01:37:14;;;;;;;12.87;4.63;;;26.80;47.40;;;;;;5088720;28;20809;-91
2022/06/19 01:39:44;;;;;;;16.93;4.23;;;26.70;47.90;;;;;;5072059;28;20535;-88
2022/06/19 01:42:13;;;;;;;9.07;3.90;;;26.30;48.30;;;;;;5090893;28;20423;-90
2022/06/19 01:44:43;;;;;;;10.33;4.07;;;25.80;49.40;;;;;;5054640;28;20441;-88
2022/06/19 01:47:10;;;;;;;9.20;3.77;;;25.20;50.60;;;;;;5068856;28;20882;-91
2022/06/19 01:49:39;;;;;;;8.03;4.10;;;25.20;51.00;;;;;;5091854;28;20450;-89
2022/06/19 01:52:08;;;;;;;12.10;4.93;;;24.90;51.30;;;;;;5073452;28;20455;-88
2022/06/19 01:54:39;;;;;;;17.13;4.30;;;24.70;51.80;;;;;;5087765;28;20477;-90
2022/06/19 01:57:07;;;;;;;7.53;3.90;;;24.70;52.10;;;;;;5054694;28;20445;-88
2022/06/19 01:59:40;;;;;;;7.20;3.80;;;25.00;51.10;;;;;;5076337;28;20464;-86
2022/06/19 02:02:10;;;;;;;9.73;4.70;;;25.40;50.60;;;;;;5089112;28;20435;-87
2022/06/19 02:04:37;;;;;;;14.73;5.30;;;25.60;50.00;;;;;;5084947;28;20446;-88
2022/06/19 02:07:07;;;;;;;6.80;4.10;;;25.90;49.50;;;;;;5076720;28;20516;-92
2022/06/19 02:09:36;;;;;;;9.13;4.53;;;25.90;49.10;;;;;;5085380;28;20455;-88
2022/06/19 02:12:04;;;;;;;5.33;3.57;;;26.00;49.00;;;;;;5109312;28;21811;-90
2022/06/19 02:14:32;;;;;;;8.80;4.27;;;26.00;48.90;;;;;;5071424;28;20478;-88
2022/06/19 02:17:06;;;;;;;9.80;4.30;;;26.10;49.00;;;;;;5072931;28;21369;-88
2022/06/19 02:19:33;;;;;;;12.57;3.80;;;26.00;49.40;;;;;;5075898;28;20489;-89
2022/06/19 02:22:01;;;;;;;10.27;3.93;;;25.90;49.90;;;;;;5091847;28;20516;-89
2022/06/19 02:24:29;;;;;;;8.07;4.47;;;25.90;49.90;;;;;;5095470;27;20863;-88
2022/06/19 02:26:57;;;;;;;9.00;4.97;;;25.90;50.20;;;;;;5115280;27;20446;-90
2022/06/19 02:29:24;;;;;;;7.33;3.50;;;25.90;51.30;;;;;;5106189;27;20969;-88
2022/06/19 02:31:53;;;;;;;11.67;4.20;;;25.80;50.70;;;;;;5097374;28;20438;-87
2022/06/19 02:34:28;;;;;;;10.97;6.00;;;25.70;50.80;;;;;;5093725;28;20930;-88
2022/06/19 02:36:57;;;;;;;10.30;4.50;;;25.70;51.00;;;;;;5082765;28;20528;-88
2022/06/19 02:39:36;;;;;;;7.47;4.00;;;25.70;50.90;;;;;;5116709;27;20840;-88
2022/06/19 02:42:29;;;;;;;11.70;4.37;;;25.70;50.50;;;;;;5113709;27;20508;-88
2022/06/19 02:45:01;;;;;;;10.73;4.10;;;25.70;50.10;;;;;;5116289;27;20469;-88
2022/06/19 02:47:29;;;;;;;9.93;4.53;;;25.70;50.30;;;;;;5109419;28;20776;-88
2022/06/19 02:49:58;;;;;;;10.13;4.40;;;25.70;50.50;;;;;;5085744;28;20436;-89
2022/06/19 02:52:25;;;;;;;11.77;5.40;;;25.70;49.90;;;;;;5108625;27;20950;-89
2022/06/19 02:54:52;;;;;;;16.50;4.20;;;25.50;50.70;;;;;;5116773;27;20435;-89
2022/06/19 02:57:19;;;;;;;5.10;3.37;;;25.30;51.30;;;;;;5110160;27;20501;-88
2022/06/19 02:59:47;;;;;;;4.40;3.70;;;25.30;50.70;;;;;;5095881;28;20516;-89
2022/06/19 03:02:14;;;;;;;9.77;3.63;;;25.40;50.30;;;;;;5075104;28;20443;-88
2022/06/19 03:04:45;;;;;;;10.03;3.73;;;25.50;49.90;;;;;;5097153;28;20435;-88
2022/06/19 03:07:13;;;;;;;9.67;4.47;;;25.50;50.10;;;;;;5111134;27;20447;-87
2022/06/19 03:09:40;;;;;;;6.30;4.20;;;25.50;50.20;;;;;;5109098;27;20556;-91
2022/06/19 03:12:09;;;;;;;9.17;4.30;;;25.50;50.10;;;;;;5093203;28;20904;-88
2022/06/19 03:14:37;;;;;;;12.73;5.10;;;25.40;50.10;;;;;;5073760;28;20522;-89
2022/06/19 03:17:04;;;;;;;5.90;4.00;;;25.40;50.50;;;;;;5086474;28;20549;-89
2022/06/19 03:19:31;;;;;;;10.40;4.33;;;25.40;50.50;;;;;;5103043;27;20498;-88
2022/06/19 03:21:58;;;;;;;11.80;4.60;;;25.30;50.80;;;;;;5090415;28;20451;-88
2022/06/19 03:24:27;;;;;;;10.67;4.23;;;25.30;50.80;;;;;;5104009;27;20438;-89
2022/06/19 03:26:55;;;;;;;6.33;4.70;;;25.20;50.30;;;;;;5072379;27;21217;-90
2022/06/19 03:29:22;;;;;;;11.80;4.87;;;25.10;50.80;;;;;;5067506;27;20470;-88
2022/06/19 03:31:49;;;;;;;8.80;5.10;;;25.10;50.80;;;;;;5085118;27;20504;-88
2022/06/19 03:34:16;;;;;;;9.00;5.17;;;25.10;51.20;;;;;;5101242;27;20570;-90
2022/06/19 03:36:43;;;;;;;13.03;5.00;;;25.20;51.10;;;;;;5091043;27;20518;-91
2022/06/19 03:39:10;;;;;;;15.03;4.73;;;25.20;51.40;;;;;;5069077;28;20490;-89
2022/06/19 03:41:39;;;;;;;7.07;4.00;;;25.10;51.80;;;;;;5106689;27;20442;-88
2022/06/19 03:44:07;;;;;;;12.10;5.07;;;25.10;51.70;;;;;;5080404;27;21023;-89
2022/06/19 03:46:34;;;;;;;11.53;4.60;;;25.10;51.70;;;;;;5102548;27;20968;-90
2022/06/19 03:49:01;;;;;;;11.13;5.53;;;25.10;51.40;;;;;;5094501;27;20516;-89
2022/06/19 03:51:29;;;;;;;11.23;5.10;;;25.20;51.70;;;;;;5070756;27;20996;-89
2022/06/19 03:53:57;;;;;;;8.07;4.47;;;25.10;52.10;;;;;;5117169;27;20565;-91
2022/06/19 03:56:27;;;;;;;10.10;4.87;;;25.10;51.90;;;;;;5074206;28;21027;-88
2022/06/19 03:58:56;;;;;;;12.70;4.23;;;25.00;52.00;;;;;;5100532;27;20501;-89
2022/06/19 04:01:26;;;;;;;9.30;4.50;;;24.90;51.80;;;;;;5074338;27;21023;-89
2022/06/19 04:03:55;;;;;;;9.77;4.40;;;24.90;51.70;;;;;;5085931;27;20524;-87
2022/06/19 04:06:24;;;;;;;9.30;3.83;;;24.90;51.80;;;;;;5084876;27;20457;-90
2022/06/19 04:08:52;;;;;;;5.90;4.33;;;24.70;52.70;;;;;;5084228;28;20925;-88
2022/06/19 04:11:21;;;;;;;12.17;4.47;;;24.60;52.70;;;;;;5085678;27;20958;-89
2022/06/19 04:13:48;;;;;;;11.07;4.43;;;24.40;53.40;;;;;;5063059;27;20474;-89
2022/06/19 04:16:20;;;;;;;7.83;4.30;;;24.50;53.60;;;;;;5064518;28;20985;-88
2022/06/19 04:18:47;;;;;;;9.10;5.00;;;24.60;53.30;;;;;;5081196;28;20495;-90
2022/06/19 04:21:16;;;;;;;8.27;4.67;;;24.60;53.20;;;;;;5083160;27;20435;-89
2022/06/19 04:23:44;;;;;;;12.57;4.90;;;24.70;53.10;;;;;;5083862;27;20459;-88
2022/06/19 04:26:14;;;;;;;8.93;4.60;;;24.70;53.10;;;;;;5085398;27;20981;-91
2022/06/19 04:28:41;;;;;;;8.20;4.60;;;24.70;52.80;;;;;;5060673;27;20473;-91
2022/06/19 04:31:09;;;;;;;7.20;4.40;;;24.90;52.60;;;;;;5097801;27;20762;-88
2022/06/19 04:33:38;;;;;;;14.47;4.13;;;25.00;52.60;;;;;;5086265;27;20490;-89
2022/06/19 04:36:07;;;;;;;8.90;4.30;;;25.10;52.60;;;;;;5065378;27;20450;-89
2022/06/19 04:38:34;;;;;;;19.20;5.80;;;25.10;52.40;;;;;;5118628;27;21292;-91
2022/06/19 04:41:01;;;;;;;8.70;5.20;;;24.90;52.70;;;;;;5099673;27;20552;-89
2022/06/19 04:43:28;;;;;;;9.50;5.33;;;24.90;52.90;;;;;;5073973;27;20482;-90
2022/06/19 04:46:02;;;;;;;10.47;4.23;;;24.80;52.60;;;;;;5059827;27;21143;-90
2022/06/19 04:48:29;;;;;;;8.70;5.57;;;24.90;52.60;;;;;;5065299;28;20466;-89
2022/06/19 04:50:58;;;;;;;8.67;4.97;;;24.90;52.80;;;;;;5065886;27;20487;-88
2022/06/19 04:53:26;;;;;;;9.80;5.23;;;24.90;52.90;;;;;;5094810;27;21075;-89
2022/06/19 04:55:53;;;;;;;8.73;4.40;;;25.00;52.90;;;;;;5089928;27;20456;-90
2022/06/19 04:58:22;;;;;;;17.83;5.00;;;25.00;52.30;;;;;;5063850;27;20551;-88
2022/06/19 05:00:50;;;;;;;7.53;4.37;;;25.00;52.20;;;;;;5085057;28;20447;-88
2022/06/19 05:03:18;;;;;;;6.90;3.90;;;25.10;52.30;;;;;;5065230;28;20450;-86
2022/06/19 05:05:45;;;;;;;10.97;5.07;;;25.20;52.20;;;;;;5068874;28;20791;-88
2022/06/19 05:08:14;;;;;;;20.80;5.60;;;25.10;52.50;;;;;;5084413;28;20465;-86
2022/06/19 05:10:42;;;;;;;7.63;4.90;;;25.00;52.70;;;;;;5100164;27;20541;-87
2022/06/19 05:13:16;;;;;;;15.43;4.87;;;25.00;52.80;;;;;;5085924;28;20744;-86
2022/06/19 05:15:43;;;;;;;14.27;4.63;;;25.00;52.60;;;;;;5084913;28;20443;-89
2022/06/19 05:18:11;;;;;;;7.37;4.43;;;25.10;52.70;;;;;;5081585;27;20455;-88
2022/06/19 05:20:38;;;;;;;13.30;4.90;;;25.20;52.90;;;;;;5093149;27;20482;-87
2022/06/19 05:23:06;;;;;;;14.40;4.80;;;25.20;52.80;;;;;;5067154;28;20848;-86
2022/06/19 05:25:35;;;;;;;9.53;4.93;;;25.30;52.60;;;;;;5092711;27;20972;-87
2022/06/19 05:28:03;;;;;;;10.20;5.27;;;25.30;52.50;;;;;;5085430;28;20474;-87
2022/06/19 05:30:30;;;;;;;8.10;4.83;;;25.20;52.70;;;;;;5061884;28;20461;-87
2022/06/19 05:32:57;;;;;;;14.73;5.20;;;25.20;52.80;;;;;;5051834;27;20530;-86
2022/06/19 05:35:24;;;;;;;10.50;4.80;;;25.30;52.80;;;;;;5064405;28;20454;-87
2022/06/19 05:37:51;;;;;;;8.53;5.07;;;25.40;52.60;;;;;;5081595;27;20838;-87
2022/06/19 05:40:18;;;;;;;12.93;5.03;;;25.50;52.70;;;;;;5061205;28;20453;-87
2022/06/19 05:42:48;;;;;;;9.30;5.27;;;25.60;52.70;;;;;;5074937;28;20550;-88
2022/06/19 05:45:16;;;;;;;5.67;4.83;;;25.70;52.40;;;;;;5076514;28;20825;-87
2022/06/19 05:47:43;;;;;;;16.10;5.50;;;25.70;52.40;;;;;;5080478;28;20871;-89
2022/06/19 05:50:12;;;;;;;15.43;5.70;;;25.70;52.40;;;;;;5077574;28;20447;-88
2022/06/19 05:52:39;;;;;;;11.17;5.10;;;25.90;52.70;;;;;;5078046;28;20726;-86
2022/06/19 05:55:07;;;;;;;19.27;5.63;;;26.10;52.50;;;;;;5079346;28;20863;-88
2022/06/19 05:57:34;;;;;;;9.00;5.10;;;26.10;52.20;;;;;;5061087;28;20503;-87
2022/06/19 06:00:04;;;;;;;11.87;5.60;;;26.30;51.30;;;;;;5076527;28;20473;-88
2022/06/19 06:02:39;;;;;;;10.40;5.00;;;26.30;51.10;;;;;;5078167;28;20495;-88
2022/06/19 06:05:06;;;;;;;9.90;4.90;;;26.20;51.50;;;;;;5061504;28;21145;-86
2022/06/19 06:07:33;;;;;;;11.53;4.77;;;26.40;51.50;;;;;;5091315;28;20458;-88
2022/06/19 06:10:00;;;;;;;13.60;5.80;;;26.50;51.50;;;;;;5073323;28;20644;-88
2022/06/19 06:12:27;;;;;;;11.60;4.77;;;26.50;50.70;;;;;;5093379;28;20505;-87
2022/06/19 06:14:54;;;;;;;14.33;5.07;;;26.50;50.70;;;;;;5080176;28;20463;-87
2022/06/19 06:17:23;;;;;;;6.83;4.83;;;26.50;50.70;;;;;;5077188;28;20541;-88
2022/06/19 06:19:50;;;;;;;11.03;5.53;;;26.60;50.20;;;;;;5094509;28;20952;-86
2022/06/19 06:22:17;;;;;;;9.83;4.70;;;26.60;50.10;;;;;;5093471;28;20447;-87
2022/06/19 06:24:44;;;;;;;14.00;5.13;;;26.70;50.20;;;;;;5093558;28;20451;-86
2022/06/19 06:27:11;;;;;;;10.70;5.70;;;26.90;49.20;;;;;;5093862;28;20461;-87
2022/06/19 06:29:38;;;;;;;12.83;5.20;;;27.10;48.90;;;;;;5090394;28;20514;-86
2022/06/19 06:32:06;;;;;;;12.50;5.33;;;27.20;48.70;;;;;;5080596;28;20988;-87
2022/06/19 06:34:34;;;;;;;12.97;4.87;;;27.30;48.60;;;;;;5096044;28;20471;-89
2022/06/19 06:37:01;;;;;;;20.43;6.23;;;27.40;48.40;;;;;;5091703;28;20437;-87
2022/06/19 06:39:28;;;;;;;14.03;5.50;;;27.50;48.80;;;;;;5091268;28;20486;-87
2022/06/19 06:41:55;;;;;;;9.87;4.77;;;27.60;48.80;;;;;;5095002;28;20857;-86
2022/06/19 06:44:23;;;;;;;27.73;5.93;;;27.90;48.70;;;;;;5090901;28;20685;-89
2022/06/19 06:46:50;;;;;;;7.33;4.40;;;28.00;48.30;;;;;;5088822;28;20997;-89
2022/06/19 06:49:17;;;;;;;13.00;4.80;;;27.70;48.30;;;;;;5094514;28;20472;-85
2022/06/19 06:51:46;;;;;;;11.70;4.53;;;27.70;48.50;;;;;;5094224;28;21056;-88
2022/06/19 06:54:13;;;;;;;8.87;4.43;;;28.00;48.60;;;;;;5065347;28;20476;-89
2022/06/19 06:56:40;;;;;;;8.50;4.80;;;28.30;48.10;;;;;;5093428;28;20449;-88
2022/06/19 06:59:07;;;;;;;12.77;4.07;;;28.60;47.50;;;;;;5094503;28;20496;-85
2022/06/19 07:01:34;;;;;;;10.47;5.73;;;28.80;47.50;;;;;;5090725;28;20446;-86
2022/06/19 07:04:01;;;;;;;13.10;5.07;;;28.70;47.40;;;;;;5090809;28;20462;-89
2022/06/19 07:06:30;;;;;;;16.53;4.60;;;28.60;47.60;;;;;;5097689;28;20450;-87
2022/06/19 07:08:59;;;;;;;13.20;6.30;;;28.60;47.60;;;;;;5093464;28;20462;-86
2022/06/19 07:11:29;;;;;;;10.93;4.83;;;28.50;47.30;;;;;;5088844;27;21027;-85
2022/06/19 07:13:56;;;;;;;14.47;4.53;;;28.60;47.90;;;;;;5099883;27;20467;-85
2022/06/19 07:16:24;;;;;;;11.33;5.10;;;28.70;47.80;;;;;;5099478;27;20442;-88
2022/06/19 07:18:52;;;;;;;12.40;5.00;;;28.90;46.40;;;;;;5100973;27;20573;-86
2022/06/19 07:21:19;;;;;;;14.40;4.63;;;29.10;45.80;;;;;;5082961;27;20457;-85
2022/06/19 07:23:46;;;;;;;12.50;5.20;;;29.20;46.00;;;;;;5082972;27;20466;-87
2022/06/19 07:26:18;;;;;;;8.23;4.13;;;29.30;45.40;;;;;;5068439;28;20512;-85
2022/06/19 07:28:45;;;;;;;12.43;5.33;;;29.40;45.50;;;;;;5087263;28;21118;-85
2022/06/19 07:31:14;;;;;;;8.73;4.70;;;29.60;44.50;;;;;;5080201;27;20497;-86
2022/06/19 07:33:41;;;;;;;9.53;5.07;;;29.60;45.00;;;;;;5101589;27;20533;-85
2022/06/19 07:36:15;;;;;;;10.97;4.90;;;29.80;45.50;;;;;;5099340;27;20838;-86
2022/06/19 07:38:42;;;;;;;10.73;5.30;;;30.00;44.80;;;;;;5083685;27;20546;-86
2022/06/19 07:41:09;;;;;;;14.77;5.30;;;30.20;44.20;;;;;;5081529;27;20455;-84
2022/06/19 07:43:38;;;;;;;9.57;4.77;;;30.20;44.00;;;;;;5068129;27;20469;-87
2022/06/19 07:46:05;;;;;;;14.37;6.23;;;30.20;43.10;;;;;;5097261;27;20454;-85
2022/06/19 07:51:17;;;;;;;6.50;4.30;;;30.30;43.80;;;;;;5071530;27;20451;-85
2022/06/19 07:53:44;;;;;;;11.10;4.47;;;30.60;41.70;;;;;;5067365;27;21267;-86
2022/06/19 07:56:11;;;;;;;9.57;4.87;;;30.90;41.70;;;;;;5067425;28;20508;-85
2022/06/19 07:58:40;;;;;;;11.67;4.57;;;31.00;41.30;;;;;;5074470;28;20803;-85
2022/06/19 08:01:06;;;;;;;10.07;5.80;;;31.10;41.70;;;;;;5097307;27;20465;-85
2022/06/19 08:03:33;;;;;;;13.67;5.20;;;31.20;41.70;;;;;;5099248;27;20435;-85
2022/06/19 08:06:01;;;;;;;8.67;4.40;;;31.40;41.90;;;;;;5095663;27;20452;-85
2022/06/19 08:08:32;;;;;;;7.83;5.10;;;31.60;41.80;;;;;;5099454;27;20847;-85
2022/06/19 08:11:00;;;;;;;10.00;5.47;;;31.70;41.80;;;;;;5098995;27;20670;-85
2022/06/19 08:13:30;;;;;;;14.23;4.73;;;31.90;41.80;;;;;;5102101;27;20455;-87
2022/06/19 08:16:02;;;;;;;15.43;5.07;;;32.10;41.10;;;;;;5102454;27;20465;-86
2022/06/19 08:18:30;;;;;;;14.10;5.20;;;32.30;40.80;;;;;;5099255;27;20465;-87
2022/06/19 08:20:56;;;;;;;15.17;4.93;;;32.40;40.70;;;;;;5084349;28;20466;-85
2022/06/19 08:23:23;;;;;;;8.23;4.93;;;32.60;40.30;;;;;;5102356;27;20985;-85
2022/06/19 08:25:51;;;;;;;8.13;4.80;;;32.80;40.40;;;;;;5099954;27;20443;-87
2022/06/19 08:28:20;;;;;;;7.43;5.33;;;33.00;40.10;;;;;;5101678;27;20471;-85
2022/06/19 08:30:47;;;;;;;6.13;4.37;;;33.10;39.10;;;;;;5102658;27;21143;-86
2022/06/19 08:33:15;;;;;;;14.00;4.90;;;33.20;39.30;;;;;;5096218;27;20450;-85
2022/06/19 08:35:46;;;;;;;9.10;5.20;;;33.30;39.10;;;;;;5098802;27;20520;-87
2022/06/19 08:38:16;;;;;;;12.97;5.17;;;33.40;38.60;;;;;;5108228;27;20486;-86
2022/06/19 08:41:12;;;;;;;15.27;5.40;;;33.50;38.90;;;;;;5100444;27;20450;-85
2022/06/19 08:44:02;;;;;;;13.73;5.70;;;33.70;38.50;;;;;;5104110;27;20435;-85
2022/06/19 08:46:36;;;;;;;9.03;5.97;;;34.00;38.20;;;;;;5098765;27;20454;-89
2022/06/19 08:49:19;;;;;;;13.17;5.60;;;34.20;37.60;;;;;;5095740;27;20466;-84
2022/06/19 08:51:58;;;;;;;12.50;5.90;;;34.40;36.60;;;;;;5079750;28;21215;-85
2022/06/19 08:54:37;;;;;;;9.70;5.73;;;34.50;37.00;;;;;;5094889;27;20466;-86
2022/06/19 08:57:12;;;;;;;10.30;5.57;;;34.70;35.70;;;;;;5097025;27;20451;-85
2022/06/19 08:59:52;;;;;;;11.63;6.30;;;34.90;34.90;;;;;;5098078;27;20470;-84
2022/06/19 09:02:32;;;;;;;11.27;5.93;;;35.00;34.50;;;;;;5100504;27;20485;-88
2022/06/19 09:08:21;;;;;;;13.63;6.80;;;35.30;33.80;;;;;;5095579;27;20464;-89
2022/06/19 09:10:51;;;;;;;10.27;6.80;;;35.50;33.40;;;;;;5085401;27;20450;-86
2022/06/19 09:13:40;;;;;;;10.73;7.53;;;35.60;32.30;;;;;;5100313;27;20440;-86
2022/06/19 09:16:13;;;;;;;8.30;7.47;;;35.70;31.60;;;;;;5080598;28;20470;-83
2022/06/19 09:18:47;;;;;;;13.03;6.80;;;35.90;30.70;;;;;;5098989;27;20477;-85
2022/06/19 09:21:26;;;;;;;11.17;7.37;;;36.10;30.00;;;;;;5099412;27;20450;-88
2022/06/19 09:24:08;;;;;;;7.83;7.10;;;36.20;30.00;;;;;;5097387;27;20446;-85
2022/06/19 09:26:40;;;;;;;9.20;6.87;;;36.30;29.10;;;;;;5099462;27;21121;-87
2022/06/19 09:29:11;;;;;;;11.97;7.27;;;36.40;29.10;;;;;;5071507;27;20454;-85
2022/06/19 09:31:45;;;;;;;8.33;6.93;;;36.50;29.30;;;;;;5098850;28;20443;-89
2022/06/19 09:34:18;;;;;;;10.30;6.80;;;36.80;29.00;;;;;;5096655;27;20454;-86
2022/06/19 09:36:52;;;;;;;10.60;7.10;;;36.90;28.20;;;;;;5098906;27;20516;-88
2022/06/19 09:39:25;;;;;;;9.00;6.60;;;37.00;28.60;;;;;;5098065;27;21957;-86
2022/06/19 09:41:57;;;;;;;8.43;7.00;;;37.00;27.60;;;;;;5075189;28;20454;-88
2022/06/19 09:44:32;;;;;;;13.13;7.10;;;36.90;28.10;;;;;;5095066;27;20471;-85
2022/06/19 09:47:05;;;;;;;7.70;6.20;;;36.80;27.80;;;;;;5096053;27;20473;-90
2022/06/19 09:49:38;;;;;;;12.40;7.50;;;36.90;28.10;;;;;;5098388;28;20986;-86
2022/06/19 09:52:12;;;;;;;11.50;7.30;;;36.90;29.30;;;;;;5096752;27;20459;-87
2022/06/19 09:54:43;;;;;;;16.80;8.70;;;37.00;27.90;;;;;;5099785;27;20465;-88
2022/06/19 09:57:13;;;;;;;9.47;6.83;;;37.10;28.10;;;;;;5093706;28;20786;-86
2022/06/19 09:59:49;;;;;;;13.10;6.60;;;37.30;27.10;;;;;;5097957;28;20462;-86
2022/06/19 10:02:22;;;;;;;13.03;7.10;;;37.30;27.20;;;;;;5097303;28;20490;-85
2022/06/19 10:04:55;;;;;;;11.80;7.73;;;37.60;26.70;;;;;;5093446;28;20442;-86
2022/06/19 10:07:28;;;;;;;7.97;6.30;;;37.80;27.10;;;;;;5097226;28;20546;-87
2022/06/19 10:10:00;;;;;;;9.33;6.47;;;37.90;27.10;;;;;;5093642;28;20447;-86
2022/06/19 10:12:33;;;;;;;10.10;7.30;;;38.10;27.50;;;;;;5075286;28;20465;-85
2022/06/19 10:15:04;;;;;;;8.03;7.13;;;38.30;26.70;;;;;;5097077;28;20962;-85
2022/06/19 10:17:41;;;;;;;10.90;7.53;;;38.60;27.10;;;;;;5095778;28;20466;-85
2022/06/19 10:20:14;;;;;;;11.57;6.90;;;38.90;26.40;;;;;;5088732;28;20441;-87
2022/06/19 10:22:53;;;;;;;10.53;7.13;;;39.00;26.30;;;;;;5095857;28;20443;-88
2022/06/19 10:25:49;;;;;;;8.50;7.00;;;38.80;26.40;;;;;;5087850;28;20455;-87
2022/06/19 10:28:31;;;;;;;10.20;6.50;;;38.90;26.10;;;;;;5095590;28;20565;-84
2022/06/19 10:31:06;;;;;;;8.47;6.90;;;38.80;25.40;;;;;;5099154;28;20449;-85
2022/06/19 10:33:46;;;;;;;6.73;6.03;;;38.70;26.10;;;;;;5082172;28;20952;-87
2022/06/19 10:36:19;;;;;;;17.37;7.27;;;38.80;25.80;;;;;;5096637;28;20541;-88
2022/06/19 10:39:06;;;;;;;10.10;7.47;;;38.60;25.60;;;;;;5093887;28;20574;-87
2022/06/19 10:44:30;;;;;;;11.93;7.33;;;38.90;26.10;;;;;;5095095;27;20439;-85
2022/06/19 10:47:08;;;;;;;11.87;7.63;;;39.00;25.10;;;;;;5101175;27;20974;-85
2022/06/19 10:49:41;;;;;;;12.00;7.10;;;39.00;25.40;;;;;;5103244;27;20503;-85
2022/06/19 10:52:14;;;;;;;11.43;6.60;;;38.80;24.80;;;;;;5082653;28;21079;-86
2022/06/19 10:54:59;;;;;;;9.10;6.87;;;38.80;25.50;;;;;;5100456;27;21248;-87
2022/06/19 10:57:45;;;;;;;8.17;5.87;;;38.80;25.00;;;;;;5098119;27;20438;-86
2022/06/19 11:00:13;;;;;;;14.60;7.30;;;38.90;25.50;;;;;;5099723;27;20450;-89
2022/06/19 11:05:35;;;;;;;10.77;6.70;;;39.30;25.40;;;;;;5097871;27;20449;-87
2022/06/19 11:08:02;;;;;;;7.77;7.00;;;39.20;24.60;;;;;;5097378;27;20501;-85
2022/06/19 11:10:40;;;;;;;17.13;7.37;;;39.00;24.80;;;;;;5102418;27;20446;-85
2022/06/19 11:13:07;;;;;;;10.30;7.00;;;39.00;25.00;;;;;;5095681;27;20551;-86
2022/06/19 11:15:37;;;;;;;8.40;6.80;;;39.20;24.70;;;;;;5085404;27;20475;-88
2022/06/19 11:18:14;;;;;;;9.43;7.00;;;39.10;24.20;;;;;;5098700;27;22393;-86
2022/06/19 11:20:54;;;;;;;11.57;6.40;;;38.90;24.30;;;;;;5104111;27;20443;-85
2022/06/19 11:23:26;;;;;;;9.40;6.90;;;38.70;25.50;;;;;;5096758;27;20455;-85
2022/06/19 11:26:01;;;;;;;12.53;6.83;;;38.80;24.90;;;;;;5108193;27;20447;-85
2022/06/19 11:28:43;;;;;;;11.10;6.80;;;39.20;25.60;;;;;;5102217;27;20545;-86
2022/06/19 11:31:14;;;;;;;12.80;6.87;;;39.60;24.60;;;;;;5098920;27;20447;-88
2022/06/19 11:33:42;;;;;;;13.13;7.23;;;39.70;24.90;;;;;;5089126;27;20934;-88
2022/06/19 11:36:24;;;;;;;10.50;7.43;;;39.90;25.00;;;;;;5101463;27;20498;-85
2022/06/19 11:38:54;;;;;;;13.80;7.63;;;39.90;24.10;;;;;;5102978;27;20489;-84
2022/06/19 11:41:31;;;;;;;10.00;7.73;;;40.00;24.70;;;;;;5090410;28;20449;-86
2022/06/19 11:44:05;;;;;;;8.13;7.33;;;40.10;24.40;;;;;;5091701;27;20442;-85
2022/06/19 11:46:32;;;;;;;12.70;6.97;;;40.00;24.90;;;;;;5099459;27;20443;-87
2022/06/19 11:49:28;;;;;;;11.50;7.47;;;39.70;24.20;;;;;;5097082;27;20500;-86
2022/06/19 11:51:58;;;;;;;7.50;6.80;;;39.90;24.30;;;;;;5091944;27;20465;-88
2022/06/19 11:54:28;;;;;;;13.90;8.43;;;40.00;24.70;;;;;;5084752;27;20442;-85
2022/06/19 11:56:57;;;;;;;15.60;7.43;;;40.10;24.30;;;;;;5092457;27;20481;-89
2022/06/19 11:59:34;;;;;;;15.57;7.37;;;40.20;24.50;;;;;;5097552;27;20481;-87
2022/06/19 12:02:01;;;;;;;9.00;7.30;;;40.20;24.40;;;;;;5084075;28;20454;-84
2022/06/19 12:04:31;;;;;;;9.83;7.83;;;40.00;24.00;;;;;;5097135;27;20436;-86
2022/06/19 12:07:01;;;;;;;8.80;7.60;;;39.70;24.70;;;;;;5068958;28;20450;-88
2022/06/19 12:09:33;;;;;;;11.33;7.43;;;39.90;24.60;;;;;;5096533;27;20463;-86
2022/06/19 12:12:07;;;;;;;22.10;7.80;;;40.10;25.30;;;;;;5094437;27;20442;-86
2022/06/19 12:14:37;;;;;;;18.33;8.10;;;40.00;24.40;;;;;;5090814;27;20526;-88
2022/06/19 12:17:21;;;;;;;12.83;7.20;;;40.30;25.20;;;;;;5109047;27;20843;-88
2022/06/19 12:19:57;;;;;;;8.93;7.80;;;40.30;24.30;;;;;;5093764;27;20474;-86
2022/06/19 12:22:39;;;;;;;11.70;7.83;;;40.40;24.70;;;;;;5091450;27;20450;-86
2022/06/19 12:25:16;;;;;;;10.50;7.80;;;40.70;24.90;;;;;;5091598;27;20450;-86
2022/06/19 12:27:50;;;;;;;11.70;8.20;;;40.80;23.60;;;;;;5097261;27;20454;-86
2022/06/19 12:30:26;;;;;;;11.27;7.97;;;40.80;24.00;;;;;;5099029;27;20450;-86
2022/06/19 12:32:56;;;;;;;9.13;6.70;;;40.90;24.20;;;;;;5079407;27;20453;-87
2022/06/19 12:35:31;;;;;;;15.30;7.97;;;40.80;24.00;;;;;;5093198;27;20459;-87
2022/06/19 12:37:58;;;;;;;11.10;8.07;;;40.50;23.90;;;;;;5067725;27;20483;-86
2022/06/19 12:40:46;;;;;;;11.37;7.70;;;40.50;24.00;;;;;;5095001;27;20484;-87
2022/06/19 12:43:20;;;;;;;7.40;6.73;;;40.40;23.70;;;;;;5094717;27;20975;-89
2022/06/19 12:45:54;;;;;;;16.57;7.53;;;40.70;23.90;;;;;;5092618;27;20470;-87
2022/06/19 12:48:45;;;;;;;7.50;6.70;;;40.90;24.40;;;;;;5081645;27;20945;-87
2022/06/19 12:51:16;;;;;;;13.40;7.70;;;40.80;23.30;;;;;;5095704;27;20459;-86
2022/06/19 12:54:14;;;;;;;12.20;7.80;;;40.80;24.30;;;;;;5098989;27;20467;-88
2022/06/19 12:57:03;;;;;;;9.60;7.67;;;41.10;24.20;;;;;;5096355;27;20469;-86
2022/06/19 12:59:52;;;;;;;9.13;7.73;;;41.30;25.00;;;;;;5095998;27;20559;-88
2022/06/19 13:02:33;;;;;;;11.40;7.90;;;41.40;23.90;;;;;;5098834;27;20455;-87
2022/06/19 13:05:12;;;;;;;8.80;7.60;;;41.20;23.10;;;;;;5099133;27;20460;-87
2022/06/19 13:07:53;;;;;;;11.20;8.20;;;41.30;23.50;;;;;;5100548;27;20461;-87
2022/06/19 13:10:46;;;;;;;11.60;7.57;;;41.00;23.20;;;;;;5069279;28;20500;-87
2022/06/19 13:13:40;;;;;;;9.07;7.77;;;40.80;23.20;;;;;;5097316;27;20474;-86